Gillette, WY

1:27 PM MDT on May 27, 2015 (GMT -0600)
Gillette-Campbell County | | Change Station
CLOSE
Current Station
Airport
Location: Gillette,
Elevation: 4364 ft
Nearby Weather Stations
Active Advisory: Areal Flood Warning Active Notice: Local Storm Report

Elev 4364 ft 44.34 °N, 105.54 °W | Updated 34 minutes ago

Partly Cloudy
Partly Cloudy
66 °F
Feels Like 66 °F
N
13
Wind Variable Wind from South

Today
High -- | Low -- °F
--% Chance of Precip.
Yesterday
High -- | Low -- °F
Precip. -- in
5:24 AM 8:36 PM
Waxing Gibbous, 69% visible
Pressure 29.96 in
Visibility 10.0 miles
Clouds Mostly Cloudy 4600 ft
Mostly Cloudy 6000 ft
Dew Point 48 °F
Humidity 52%
Rainfall 0.00 in
Snow Depth Not available.
UV 6 out of 12
Pollen 6.10 out of 12
Air Quality Not available.
Flu Activity Sporadic
METAR KGCC 271853Z AUTO 18011KT 10SM BKN046 BKN060 19/09 A2996

More Conditions Fewer Conditions

Pressure 29.96 in
Visibility 10.0 miles
Clouds Mostly Cloudy 4600 ft
Mostly Cloudy 6000 ft
Dew Point 48 °F
Humidity 52%
Rainfall 0.00 in
Snow Depth Not available.
UV 6 out of 12
Pollen 6.10 out of 12
Air Quality Not available.
Flu Activity Sporadic
METAR KGCC 271853Z AUTO 18011KT 10SM BKN046 BKN060 19/09 A2996

More Conditions Fewer Conditions

10-Day Weather Forecast

Almanac

Astronomy

May. 27, 2015 Rise Set
Actual Time
Civil Twilight
Nautical Twilight
Astronomical Twilight
Moon
Length of Visible Light
Length of Day
Tomorrow will be .
, % of the Moon is Illuminated

Today's Extremes

State Highs State Lows

Community

WunderPhotos

Upload Photos

1,824,770 photos uploaded!

WunderBlogs® & News

Nearby

Air Quality

  Air Quality AQ Index Pollutant
Not available.

Snow Depth

Station Depth Elevation

Earthquake Activity

City Distance Mag. Time & Date
Minimum magnitude displayed is 2.5.

Coastal Water Temperatures

Place Temperature

Stations

Nearby Weather Stations

Station Location Temp. Windchill Dew Point Humidity Wind Precip. Elev Updated Type
                   
Areal Flood Warning
Statement as of 5:34 AM MDT on May 27, 2015

... A Flood Warning remains in effect until 300 PM MDT Thursday for
northwestern Campbell County...

Flood waters are moving down the Powder River... after a record crest
over 15 feet at Sussex in eastern Johnson County early Monday. Water
levels continue to rise between Arvada Wyoming and Moorhead
Montana... and this stretch of the river is expected to crest today.

Roads... pastures... and farmland along the Powder River will be
flooded in extreme northwest Campbell County as the water flows
downstream.

Precautionary/preparedness actions...

Do not drive your vehicle into areas where the water covers the
roadway. The water depth may be too great to allow your car to cross
safely. Move to higher ground.


Lat... Lon 4496 10596 4500 10594 4499 10592 4500 10589
      4494 10592 4490 10602 4494 10603


Johnson